Time;durP1;ratioP1;P1;durP2;ratioP2;P2;SDS_P1;SDS_P2;PMS_P1;PMS_P2;Temp;Humidity;BMP_temperature;BMP_pressure;BME280_temperature;BME280_humidity;BME280_pressure;Samples;Min_cycle;Max_cycle;Signal;HPM_P1;HPM_P2
2021/12/08 00:01:13;;;;;;;6.88;4.60;;;3.30;99.90;;;;;;4924627;29;20051;-81
2021/12/08 00:03:39;;;;;;;13.13;4.93;;;3.50;99.90;;;;;;4929475;29;20334;-80
2021/12/08 00:06:06;;;;;;;9.68;4.65;;;3.70;99.90;;;;;;4925661;29;20055;-81
2021/12/08 00:08:33;;;;;;;8.48;4.43;;;3.30;99.90;;;;;;4922844;29;20516;-81
2021/12/08 00:13:32;;;;;;;9.77;5.25;;;4.50;99.90;;;;;;4940215;28;20445;-83
2021/12/08 00:16:04;;;;;;;11.32;4.93;;;3.30;99.90;;;;;;4928869;29;20074;-81
2021/12/08 00:18:33;;;;;;;10.13;4.75;;;4.70;99.90;;;;;;4925124;29;20528;-80
2021/12/08 00:21:01;;;;;;;12.38;4.90;;;3.30;99.90;;;;;;4908324;29;20055;-81
2021/12/08 00:23:28;;;;;;;7.95;5.15;;;4.60;99.90;;;;;;4924182;29;20413;-81
2021/12/08 00:25:55;;;;;;;8.35;4.85;;;4.10;99.90;;;;;;4913226;28;20059;-80
2021/12/08 00:28:21;;;;;;;12.00;5.70;;;3.40;99.90;;;;;;4913875;29;20047;-82
2021/12/08 00:30:50;;;;;;;10.70;5.28;;;3.30;99.90;;;;;;4923846;29;20046;-81
2021/12/08 00:33:17;;;;;;;10.23;6.20;;;4.60;99.90;;;;;;4923702;29;20150;-80
2021/12/08 00:35:47;;;;;;;8.27;5.68;;;3.40;99.90;;;;;;4923004;29;20063;-81
2021/12/08 00:38:14;;;;;;;8.27;5.57;;;3.40;99.90;;;;;;4929575;29;20107;-81
2021/12/08 00:40:40;;;;;;;11.05;5.40;;;4.60;99.90;;;;;;4892896;29;20055;-80
2021/12/08 00:43:06;;;;;;;12.10;5.95;;;3.40;99.90;;;;;;4924193;29;20053;-80
2021/12/08 00:45:34;;;;;;;9.75;5.53;;;3.40;99.90;;;;;;4919984;29;20045;-80
2021/12/08 00:48:00;;;;;;;11.52;6.10;;;4.30;99.90;;;;;;4929093;29;20055;-81
2021/12/08 00:50:29;;;;;;;10.23;6.03;;;3.40;99.90;;;;;;4881586;29;20425;-81
2021/12/08 00:52:57;;;;;;;9.05;5.25;;;3.40;99.90;;;;;;4911180;29;20126;-80
2021/12/08 00:55:23;;;;;;;10.25;5.70;;;3.50;99.90;;;;;;4910325;29;20137;-83
2021/12/08 00:57:49;;;;;;;10.75;5.82;;;3.40;99.90;;;;;;4934115;28;20122;-80
2021/12/08 01:00:30;;;;;;;9.40;5.57;;;4.60;99.90;;;;;;4925606;29;20059;-81
2021/12/08 01:02:56;;;;;;;10.82;6.57;;;4.70;99.90;;;;;;4929002;29;20568;-80
2021/12/08 01:05:25;;;;;;;11.45;6.60;;;3.50;99.90;;;;;;4912788;29;20052;-81
2021/12/08 01:07:51;;;;;;;14.63;6.10;;;3.50;99.90;;;;;;4924317;29;20094;-80
2021/12/08 01:10:21;;;;;;;10.02;6.35;;;3.60;99.90;;;;;;4924835;29;20079;-81
2021/12/08 01:12:47;;;;;;;9.02;5.97;;;3.50;99.90;;;;;;4939879;28;20512;-81
2021/12/08 01:15:13;;;;;;;9.65;6.30;;;3.60;99.90;;;;;;4924828;29;20055;-80
2021/12/08 01:17:40;;;;;;;10.07;5.65;;;3.60;99.90;;;;;;4924883;29;20091;-81
2021/12/08 01:20:09;;;;;;;9.32;5.45;;;4.70;99.90;;;;;;4925044;29;20051;-81
2021/12/08 01:22:35;;;;;;;8.27;6.00;;;3.60;99.90;;;;;;4922308;29;20065;-82
2021/12/08 01:25:01;;;;;;;9.10;5.93;;;3.70;99.90;;;;;;4929077;29;20077;-81
2021/12/08 01:27:29;;;;;;;9.93;5.60;;;3.70;99.90;;;;;;4929525;29;20055;-82
2021/12/08 01:29:55;;;;;;;10.25;5.15;;;4.20;99.90;;;;;;4909127;29;20115;-80
2021/12/08 01:32:21;;;;;;;7.45;5.32;;;3.70;99.90;;;;;;4920501;29;20043;-81
2021/12/08 01:34:47;;;;;;;9.57;5.25;;;5.10;99.90;;;;;;4928714;29;20106;-80
2021/12/08 01:37:12;;;;;;;12.63;6.30;;;3.70;99.90;;;;;;4930324;29;20053;-81
2021/12/08 01:39:38;;;;;;;8.82;5.38;;;3.70;99.90;;;;;;4926739;29;20047;-80
2021/12/08 01:42:06;;;;;;;12.13;6.40;;;5.10;99.90;;;;;;4933359;29;20401;-82
2021/12/08 01:47:15;;;;;;;10.43;6.43;;;3.70;99.90;;;;;;4913996;29;20055;-83
2021/12/08 01:49:41;;;;;;;11.77;6.43;;;3.80;99.90;;;;;;4928890;29;20047;-82
2021/12/08 01:52:07;;;;;;;8.57;6.32;;;5.00;99.90;;;;;;4926301;29;20578;-81
2021/12/08 01:54:33;;;;;;;9.32;6.75;;;3.80;99.90;;;;;;4915764;29;20054;-82
2021/12/08 01:57:00;;;;;;;8.93;6.35;;;3.80;99.90;;;;;;4930758;29;20126;-82
2021/12/08 01:59:26;;;;;;;10.93;7.20;;;3.90;99.90;;;;;;4924273;29;20051;-82
2021/12/08 02:01:51;;;;;;;9.32;6.05;;;4.40;99.90;;;;;;4911073;29;20051;-80
2021/12/08 02:04:17;;;;;;;8.05;6.03;;;4.70;99.90;;;;;;4911954;29;20083;-80
2021/12/08 02:06:46;;;;;;;10.38;7.10;;;3.90;99.90;;;;;;4927504;29;20052;-80
2021/12/08 02:09:14;;;;;;;10.95;7.47;;;5.10;99.90;;;;;;4916856;29;20489;-80
2021/12/08 02:11:45;;;;;;;8.68;7.05;;;3.90;99.90;;;;;;4931147;29;20059;-81
2021/12/08 02:14:12;;;;;;;10.32;7.13;;;3.90;99.90;;;;;;4925849;29;20123;-81
2021/12/08 02:16:38;;;;;;;10.25;7.18;;;3.90;99.90;;;;;;4925461;29;20742;-79
2021/12/08 02:19:05;;;;;;;9.27;6.53;;;3.90;99.90;;;;;;4925919;29;20114;-80
2021/12/08 02:21:36;;;;;;;8.10;6.60;;;3.90;99.90;;;;;;4926771;29;20074;-82
2021/12/08 02:24:09;;;;;;;13.05;6.95;;;3.90;99.90;;;;;;4910868;29;20051;-80
2021/12/08 02:26:37;;;;;;;10.77;6.82;;;3.90;99.90;;;;;;4925552;29;20444;-80
2021/12/08 02:29:08;;;;;;;10.63;7.63;;;4.50;99.90;;;;;;4912361;29;20065;-80
2021/12/08 02:31:46;;;;;;;13.90;8.23;;;4.00;99.90;;;;;;4922314;29;20055;-81
2021/12/08 02:47:56;;;;;;;10.55;8.20;;;5.40;99.90;;;;;;4925971;29;20135;-81
2021/12/08 02:50:24;;;;;;;11.40;9.00;;;4.10;99.90;;;;;;4910619;29;20119;-81
2021/12/08 02:52:51;;;;;;;12.15;8.30;;;4.10;99.90;;;;;;4929976;29;20142;-82
2021/12/08 02:55:17;;;;;;;16.45;9.27;;;4.10;99.90;;;;;;4925383;29;20098;-81
2021/12/08 02:57:42;;;;;;;11.57;8.73;;;4.10;99.90;;;;;;4913729;29;20059;-81
2021/12/08 03:00:11;;;;;;;13.55;8.55;;;4.20;99.90;;;;;;4931599;29;20698;-82
2021/12/08 03:02:37;;;;;;;13.70;8.93;;;4.20;99.90;;;;;;4925224;29;20514;-82
2021/12/08 03:05:04;;;;;;;11.65;8.63;;;4.20;99.90;;;;;;4926531;29;20043;-81
2021/12/08 03:07:29;;;;;;;15.25;9.73;;;4.20;99.90;;;;;;4926445;28;20509;-81
2021/12/08 03:10:06;;;;;;;13.57;9.30;;;4.30;99.90;;;;;;4922755;29;20064;-82
2021/12/08 03:12:31;;;;;;;12.85;9.05;;;4.30;99.90;;;;;;4931115;29;20078;-81
2021/12/08 03:14:57;;;;;;;11.77;8.75;;;4.40;99.90;;;;;;4915577;29;20054;-82
2021/12/08 03:17:23;;;;;;;12.07;9.35;;;5.10;99.90;;;;;;4923985;29;20039;-82
2021/12/08 03:19:49;;;;;;;12.25;8.70;;;4.40;99.90;;;;;;4924397;29;20083;-81
2021/12/08 03:22:15;;;;;;;13.25;8.25;;;5.40;99.90;;;;;;4926306;29;20093;-81
2021/12/08 03:24:44;;;;;;;12.82;9.68;;;4.50;99.90;;;;;;4911387;29;20050;-82
2021/12/08 03:27:16;;;;;;;14.55;9.27;;;4.50;99.90;;;;;;4933845;29;20055;-82
2021/12/08 03:32:29;;;;;;;12.20;9.18;;;4.60;99.90;;;;;;4942287;28;20587;-83
2021/12/08 03:34:54;;;;;;;;;;;4.60;99.90;;;;;;4924567;29;20043;-82
2021/12/08 03:37:37;;;;;;;12.83;8.97;;;4.60;99.90;;;;;;4924614;29;20291;-82
2021/12/08 03:40:29;;;;;;;11.55;8.43;;;4.60;99.90;;;;;;4925027;29;20126;-83
2021/12/08 03:42:57;;;;;;;12.50;7.75;;;4.70;99.90;;;;;;4893442;29;20142;-83
2021/12/08 03:45:35;;;;;;;12.38;8.10;;;6.20;99.90;;;;;;4926645;29;20110;-83
2021/12/08 03:48:07;;;;;;;10.63;6.63;;;4.70;99.90;;;;;;4924715;29;20997;-83
2021/12/08 03:50:36;;;;;;;9.30;7.30;;;4.80;99.90;;;;;;4942738;28;20047;-83
2021/12/08 03:53:04;;;;;;;11.93;7.20;;;4.80;99.90;;;;;;4925054;29;20118;-83
2021/12/08 03:55:30;;;;;;;11.98;7.97;;;4.80;99.90;;;;;;4924449;29;20393;-83
2021/12/08 03:57:56;;;;;;;10.50;7.25;;;4.80;99.90;;;;;;4906247;29;20055;-83
2021/12/08 04:00:29;;;;;;;13.13;8.27;;;5.70;99.90;;;;;;4922346;29;20091;-83
2021/12/08 04:02:59;;;;;;;15.10;9.55;;;4.70;99.90;;;;;;4924212;29;20051;-83
2021/12/08 04:05:40;;;;;;;15.77;9.23;;;4.70;99.90;;;;;;4907788;29;20142;-83
2021/12/08 04:08:16;;;;;;;14.55;10.18;;;5.60;99.90;;;;;;4925526;29;20047;-83
2021/12/08 04:10:45;;;;;;;12.55;9.40;;;4.70;99.90;;;;;;4900293;29;20114;-84
2021/12/08 04:13:11;;;;;;;15.93;9.85;;;5.40;99.90;;;;;;4929641;29;20047;-83
2021/12/08 04:15:37;;;;;;;13.48;9.07;;;4.70;99.90;;;;;;4922730;29;20062;-83
2021/12/08 04:18:03;;;;;;;14.45;9.30;;;4.70;99.90;;;;;;4904113;29;20798;-82
2021/12/08 04:20:42;;;;;;;12.60;8.38;;;4.60;99.90;;;;;;4908661;29;20059;-83
2021/12/08 04:23:12;;;;;;;15.93;10.10;;;4.60;99.90;;;;;;4925079;29;20046;-83
2021/12/08 04:25:43;;;;;;;16.55;10.25;;;4.60;99.90;;;;;;4923266;29;20046;-82
2021/12/08 04:28:13;;;;;;;17.40;10.20;;;4.70;99.90;;;;;;4908445;29;20604;-83
2021/12/08 04:30:45;;;;;;;14.57;9.30;;;4.70;99.90;;;;;;4924677;29;20051;-83
2021/12/08 04:33:12;;;;;;;13.95;9.60;;;4.60;99.90;;;;;;4923562;29;20595;-83
2021/12/08 04:35:39;;;;;;;14.63;9.38;;;4.60;99.90;;;;;;4913306;29;20058;-83
2021/12/08 04:38:10;;;;;;;14.38;9.15;;;4.60;99.90;;;;;;4907600;29;20040;-83
2021/12/08 04:44:01;;;;;;;18.48;11.30;;;4.60;99.90;;;;;;4923802;29;20051;-83
2021/12/08 05:05:17;;;;;;;13.10;7.40;;;4.60;99.90;;;;;;4920012;29;20052;-84
2021/12/08 05:07:54;;;;;;;10.00;6.65;;;4.60;99.90;;;;;;4908510;29;20531;-82
2021/12/08 05:10:26;;;;;;;11.52;6.80;;;4.60;99.90;;;;;;4929680;29;20497;-82
2021/12/08 05:12:53;;;;;;;10.25;6.20;;;4.60;99.90;;;;;;4941853;28;20048;-82
2021/12/08 05:15:37;;;;;;;12.30;6.82;;;4.90;99.90;;;;;;4911094;29;20131;-82
2021/12/08 05:18:12;;;;;;;11.77;7.10;;;4.50;99.90;;;;;;4926499;29;20070;-82
2021/12/08 05:20:49;;;;;;;8.10;6.18;;;4.50;99.90;;;;;;4924805;29;20044;-81
2021/12/08 05:23:38;;;;;;;13.32;6.82;;;4.50;99.90;;;;;;4931107;29;20058;-81
2021/12/08 05:26:19;;;;;;;9.40;5.90;;;4.50;99.90;;;;;;4910082;29;20482;-81
2021/12/08 05:28:47;;;;;;;11.38;6.50;;;4.50;99.90;;;;;;4909742;29;20070;-82
2021/12/08 05:31:18;;;;;;;9.75;6.05;;;4.50;99.90;;;;;;4925409;29;20040;-82
2021/12/08 05:33:45;;;;;;;8.55;5.72;;;4.40;99.90;;;;;;4925850;29;20055;-81
2021/12/08 05:36:12;;;;;;;7.88;5.93;;;4.50;99.90;;;;;;4898487;29;20492;-81
2021/12/08 05:38:40;;;;;;;8.65;5.72;;;4.50;99.90;;;;;;4928328;29;20039;-81
2021/12/08 05:41:05;;;;;;;7.80;5.47;;;4.50;99.90;;;;;;4916274;29;20051;-82
2021/12/08 05:43:31;;;;;;;8.68;5.70;;;4.50;99.90;;;;;;4912011;29;20397;-81
2021/12/08 05:45:57;;;;;;;8.93;6.00;;;5.70;99.90;;;;;;4926346;29;20576;-80
2021/12/08 05:48:24;;;;;;;10.10;5.80;;;5.20;99.90;;;;;;4915360;29;20055;-82
2021/12/08 05:50:52;;;;;;;9.30;6.30;;;6.10;99.90;;;;;;4929538;29;20059;-82
2021/12/08 05:53:18;;;;;;;10.43;6.50;;;4.90;99.90;;;;;;4928491;29;20059;-84
2021/12/08 05:55:45;;;;;;;12.13;6.32;;;4.50;99.90;;;;;;4926380;29;20050;-83
2021/12/08 05:58:16;;;;;;;8.18;5.97;;;4.50;99.90;;;;;;4925729;29;20063;-83
2021/12/08 06:00:50;;;;;;;11.75;6.10;;;4.50;99.90;;;;;;4929488;29;20063;-83
2021/12/08 06:03:18;;;;;;;10.43;5.63;;;4.50;99.90;;;;;;4928943;29;20051;-83
2021/12/08 06:05:51;;;;;;;10.77;5.95;;;4.80;99.90;;;;;;4926391;29;20047;-83
2021/12/08 06:08:17;;;;;;;13.45;5.53;;;4.70;99.90;;;;;;4931615;28;20050;-83
2021/12/08 06:10:44;;;;;;;15.20;5.82;;;4.80;99.90;;;;;;4930135;29;20042;-81
2021/12/08 06:13:14;;;;;;;12.63;6.15;;;4.60;99.90;;;;;;4945166;28;20145;-84
2021/12/08 06:15:42;;;;;;;11.20;6.03;;;4.80;99.90;;;;;;4929084;28;20047;-83
2021/12/08 06:18:08;;;;;;;13.82;6.20;;;4.60;99.90;;;;;;4917501;28;20091;-83
2021/12/08 06:20:35;;;;;;;9.60;5.22;;;4.60;99.90;;;;;;4925364;29;20051;-83
2021/12/08 06:23:03;;;;;;;9.05;4.85;;;4.60;99.90;;;;;;4932076;29;20074;-83
2021/12/08 06:25:31;;;;;;;11.80;5.05;;;4.70;99.90;;;;;;4931492;29;20512;-83
2021/12/08 06:27:57;;;;;;;9.18;4.47;;;4.70;99.90;;;;;;4927733;29;20078;-83
2021/12/08 06:30:27;;;;;;;12.52;5.40;;;4.70;99.90;;;;;;4926371;29;20048;-83
2021/12/08 06:32:53;;;;;;;10.43;5.03;;;4.70;99.90;;;;;;4926377;29;20050;-81
2021/12/08 06:35:28;;;;;;;11.98;4.75;;;4.70;99.90;;;;;;4910724;29;20605;-81
2021/12/08 06:37:55;;;;;;;14.88;5.00;;;4.80;99.90;;;;;;4926764;29;20066;-81
2021/12/08 06:40:29;;;;;;;15.20;5.00;;;4.90;99.90;;;;;;4924809;29;20489;-81
2021/12/08 06:42:58;;;;;;;9.95;4.90;;;4.90;99.90;;;;;;4910479;29;20051;-82
2021/12/08 06:45:28;;;;;;;13.48;5.28;;;4.90;99.90;;;;;;4927275;29;20073;-83
2021/12/08 06:47:57;;;;;;;12.05;5.50;;;5.00;99.90;;;;;;4916024;29;20107;-83
2021/12/08 06:50:32;;;;;;;14.30;5.20;;;5.00;99.90;;;;;;4926298;29;20047;-84
2021/12/08 06:52:59;;;;;;;10.30;5.05;;;5.10;99.90;;;;;;4945217;28;20043;-82
2021/12/08 06:55:39;;;;;;;11.27;4.40;;;5.00;99.90;;;;;;4913220;29;20126;-82
2021/12/08 06:58:09;;;;;;;10.35;5.38;;;6.50;99.90;;;;;;4931287;29;20039;-83
2021/12/08 07:04:07;;;;;;;7.38;3.83;;;5.10;99.90;;;;;;4928982;29;20548;-82
2021/12/08 07:09:04;;;;;;;7.32;3.58;;;4.90;99.90;;;;;;4926240;29;20051;-84
2021/12/08 07:11:30;;;;;;;8.45;3.92;;;5.80;99.90;;;;;;4911551;29;20059;-84
2021/12/08 07:13:57;;;;;;;10.57;4.15;;;4.80;99.90;;;;;;4927676;29;20058;-82
2021/12/08 07:16:27;;;;;;;10.02;4.55;;;4.80;99.90;;;;;;4922166;29;20056;-83
2021/12/08 07:19:01;;;;;;;11.25;4.00;;;4.80;99.90;;;;;;4913777;29;20089;-82
2021/12/08 07:21:32;;;;;;;9.65;4.18;;;5.50;99.90;;;;;;4927358;29;20127;-87
2021/12/08 07:24:13;;;;;;;8.57;3.97;;;4.80;99.90;;;;;;4918647;29;20496;-83
2021/12/08 07:26:40;;;;;;;10.50;4.22;;;4.80;99.90;;;;;;4918066;29;20046;-83
2021/12/08 07:29:13;;;;;;;9.82;4.38;;;5.90;99.90;;;;;;4927774;29;20059;-84
2021/12/08 07:31:52;;;;;;;9.15;3.90;;;5.80;99.90;;;;;;4927493;29;20063;-83
2021/12/08 07:34:19;;;;;;;10.15;3.47;;;4.80;99.90;;;;;;4926060;29;20443;-83
2021/12/08 07:36:50;;;;;;;8.80;3.92;;;4.80;99.90;;;;;;4911530;29;20075;-82
2021/12/08 07:39:21;;;;;;;8.68;3.63;;;4.80;99.90;;;;;;4925911;29;20162;-83
2021/12/08 07:41:54;;;;;;;9.65;4.13;;;5.00;99.90;;;;;;4926082;29;20134;-84
2021/12/08 07:44:22;;;;;;;10.02;4.20;;;4.90;99.90;;;;;;4924412;29;20496;-83
2021/12/08 07:47:10;;;;;;;8.73;3.28;;;6.20;99.90;;;;;;4931999;29;20131;-83
2021/12/08 07:49:47;;;;;;;9.85;3.20;;;4.90;99.90;;;;;;4909078;29;20059;-83
2021/12/08 07:52:18;;;;;;;8.10;3.80;;;5.00;99.90;;;;;;4924034;29;20110;-85
2021/12/08 07:54:46;;;;;;;8.15;3.70;;;4.90;99.90;;;;;;4924930;29;20097;-84
2021/12/08 07:57:26;;;;;;;9.32;3.33;;;4.90;99.90;;;;;;4933453;29;20057;-83
2021/12/08 07:59:56;;;;;;;7.80;3.45;;;4.90;99.90;;;;;;4910522;29;20051;-84
2021/12/08 08:02:26;;;;;;;9.98;3.40;;;6.60;99.90;;;;;;4926218;29;20051;-83
2021/12/08 08:04:54;;;;;;;9.07;4.05;;;5.00;99.90;;;;;;4926005;29;20047;-83
2021/12/08 08:07:21;;;;;;;8.98;3.10;;;4.60;99.90;;;;;;4924897;29;20130;-83
2021/12/08 08:09:51;;;;;;;8.93;3.42;;;5.00;99.90;;;;;;4926035;29;20055;-83
2021/12/08 08:12:21;;;;;;;6.75;2.75;;;4.90;99.90;;;;;;4923568;29;20094;-84
2021/12/08 08:14:54;;;;;;;6.82;2.20;;;4.90;99.90;;;;;;4923403;29;20051;-83
2021/12/08 08:17:30;;;;;;;11.13;3.15;;;4.90;99.90;;;;;;4932509;29;20059;-84
2021/12/08 08:19:56;;;;;;;4.35;2.45;;;5.90;99.90;;;;;;4924865;29;20051;-83
2021/12/08 08:22:27;;;;;;;9.85;2.47;;;4.90;99.90;;;;;;4909866;29;20047;-83
2021/12/08 08:24:55;;;;;;;14.00;2.80;;;5.10;99.90;;;;;;4925334;29;20059;-83
2021/12/08 08:27:23;;;;;;;8.50;2.22;;;4.90;99.90;;;;;;4924677;29;20043;-83
2021/12/08 08:29:50;;;;;;;8.90;2.72;;;4.90;99.90;;;;;;4925782;29;20059;-83
2021/12/08 08:32:27;;;;;;;6.18;2.05;;;3.80;99.90;;;;;;4915353;29;20067;-83
2021/12/08 08:35:06;;;;;;;8.05;2.28;;;4.80;99.90;;;;;;4940775;29;20051;-83
2021/12/08 08:37:32;;;;;;;7.60;2.78;;;4.70;99.90;;;;;;4925896;29;20051;-84
2021/12/08 08:40:03;;;;;;;7.90;2.47;;;5.00;99.90;;;;;;4930896;29;20062;-83
2021/12/08 08:42:35;;;;;;;6.90;2.45;;;5.40;99.90;;;;;;4924810;29;20051;-83
2021/12/08 08:45:12;;;;;;;6.22;2.05;;;5.60;99.90;;;;;;4925274;29;20623;-84
2021/12/08 08:47:56;;;;;;;9.20;2.25;;;5.60;99.90;;;;;;4941390;29;20126;-83
2021/12/08 08:50:31;;;;;;;9.68;2.25;;;5.70;99.90;;;;;;4923835;29;20047;-83
2021/12/08 08:52:58;;;;;;;11.38;2.90;;;5.20;99.90;;;;;;4940056;29;20096;-83
2021/12/08 08:55:40;;;;;;;9.25;3.05;;;5.10;99.90;;;;;;4922985;29;20094;-84
2021/12/08 08:58:08;;;;;;;7.07;2.45;;;3.70;99.90;;;;;;4931609;29;20058;-83
2021/12/08 09:00:42;;;;;;;7.57;2.67;;;5.80;99.90;;;;;;4923566;29;20059;-83
2021/12/08 09:03:14;;;;;;;7.28;2.08;;;4.90;99.90;;;;;;4927773;29;20063;-82
2021/12/08 09:05:51;;;;;;;6.63;2.38;;;5.00;99.90;;;;;;4921586;29;20414;-83
2021/12/08 09:08:17;;;;;;;8.82;2.85;;;4.90;99.90;;;;;;4904935;29;20111;-84
2021/12/08 09:10:53;;;;;;;7.70;2.72;;;4.90;99.90;;;;;;4922369;29;20055;-84
2021/12/08 09:13:25;;;;;;;6.70;2.60;;;5.10;99.90;;;;;;4920963;29;20131;-83
2021/12/08 09:15:57;;;;;;;10.07;2.65;;;4.90;99.90;;;;;;4921523;29;20055;-83
2021/12/08 09:18:57;;;;;;;4.60;2.28;;;4.90;99.90;;;;;;4920766;29;20138;-84
2021/12/08 09:21:32;;;;;;;5.95;2.67;;;5.10;99.90;;;;;;4919578;29;20052;-84
2021/12/08 09:24:08;;;;;;;13.80;3.53;;;5.00;99.90;;;;;;4905207;29;20058;-84
2021/12/08 09:26:38;;;;;;;11.85;3.20;;;5.00;99.90;;;;;;4912782;29;20240;-84
2021/12/08 09:29:17;;;;;;;9.27;2.67;;;5.00;99.90;;;;;;4919335;29;20055;-84
2021/12/08 09:32:03;;;;;;;10.50;2.60;;;5.10;99.90;;;;;;4907232;29;20051;-84
2021/12/08 09:34:33;;;;;;;6.10;2.67;;;5.10;99.90;;;;;;4920115;29;20509;-84
2021/12/08 09:37:06;;;;;;;9.15;2.88;;;5.10;99.90;;;;;;4929340;29;20055;-82
2021/12/08 09:39:40;;;;;;;10.48;3.63;;;5.20;99.90;;;;;;4919657;29;20098;-84
2021/12/08 09:42:15;;;;;;;5.95;2.55;;;5.10;99.90;;;;;;4912764;29;20446;-83
2021/12/08 09:44:51;;;;;;;11.85;3.55;;;5.10;99.90;;;;;;4911142;29;20130;-81
2021/12/08 09:47:17;;;;;;;6.63;3.30;;;5.20;99.90;;;;;;4928210;29;20127;-83
2021/12/08 09:49:49;;;;;;;7.70;3.08;;;5.20;99.90;;;;;;4911890;29;20470;-81
2021/12/08 09:52:18;;;;;;;9.63;3.17;;;5.60;99.90;;;;;;4920527;29;20052;-81
2021/12/08 09:54:44;;;;;;;8.43;3.30;;;5.30;99.90;;;;;;4905736;29;20117;-82
2021/12/08 09:57:13;;;;;;;8.63;3.35;;;5.40;99.90;;;;;;4906078;29;20600;-82
2021/12/08 09:59:47;;;;;;;11.13;3.70;;;5.50;99.90;;;;;;4930189;29;20233;-81
2021/12/08 10:02:32;;;;;;;7.00;2.90;;;5.10;99.90;;;;;;4923382;29;20114;-82
2021/12/08 10:05:04;;;;;;;9.15;2.83;;;8.60;99.90;;;;;;4922479;29;20060;-82
2021/12/08 10:07:29;;;;;;;10.35;3.33;;;7.80;99.90;;;;;;4922229;29;20560;-82
2021/12/08 10:09:55;;;;;;;8.02;2.58;;;8.00;99.90;;;;;;4900742;29;20087;-82
2021/12/08 10:12:22;;;;;;;12.38;3.33;;;7.70;99.90;;;;;;4925646;29;20131;-83
2021/12/08 10:14:50;;;;;;;10.40;3.17;;;8.00;99.90;;;;;;4923566;29;20538;-81
2021/12/08 10:17:17;;;;;;;7.78;2.90;;;7.90;99.90;;;;;;4931399;29;20055;-82
2021/12/08 10:19:43;;;;;;;9.02;2.67;;;9.10;99.90;;;;;;4914316;29;20082;-83
2021/12/08 10:22:22;;;;;;;5.22;2.10;;;8.40;99.90;;;;;;4924567;29;20052;-81
2021/12/08 10:25:14;;;;;;;6.43;2.63;;;8.90;99.90;;;;;;4925208;29;20103;-82
2021/12/08 10:28:19;;;;;;;7.63;2.40;;;9.40;99.90;;;;;;4933626;29;20091;-81
2021/12/08 10:30:52;;;;;;;7.60;2.38;;;9.50;99.90;;;;;;4922064;29;20067;-80
2021/12/08 10:37:06;;;;;;;7.55;2.60;;;8.80;99.90;;;;;;4924290;29;20052;-81
2021/12/08 10:39:33;;;;;;;4.95;2.03;;;9.00;99.90;;;;;;4927690;29;20056;-81
2021/12/08 10:42:04;;;;;;;8.52;2.45;;;10.40;99.90;;;;;;4922034;29;20115;-81
2021/12/08 10:45:08;;;;;;;8.98;2.25;;;9.50;99.90;;;;;;4938915;29;20449;-82
2021/12/08 10:47:40;;;;;;;5.68;1.85;;;8.90;99.90;;;;;;4908435;29;20060;-81
2021/12/08 10:55:55;;;;;;;5.82;2.28;;;7.60;99.90;;;;;;4923344;29;20063;-82
2021/12/08 10:58:23;;;;;;;7.90;2.50;;;7.30;99.90;;;;;;4915539;29;20651;-81
2021/12/08 11:00:50;;;;;;;6.28;2.10;;;7.50;99.90;;;;;;4907925;29;20074;-81
2021/12/08 11:03:16;;;;;;;6.30;2.05;;;7.00;99.90;;;;;;4923615;29;20056;-81
2021/12/08 11:05:48;;;;;;;5.93;2.42;;;6.90;99.90;;;;;;4922140;29;20051;-80
2021/12/08 11:08:36;;;;;;;6.10;2.60;;;6.80;99.90;;;;;;4907168;29;20056;-81
2021/12/08 11:11:20;;;;;;;5.38;2.33;;;6.70;99.90;;;;;;4940134;29;20047;-82
2021/12/08 11:13:56;;;;;;;8.55;2.70;;;6.60;99.90;;;;;;4928228;29;20054;-82
2021/12/08 11:16:34;;;;;;;4.82;2.55;;;6.50;99.90;;;;;;4926077;29;20074;-86
2021/12/08 11:19:09;;;;;;;6.00;2.80;;;7.70;99.90;;;;;;4926661;29;20046;-85
2021/12/08 11:21:43;;;;;;;5.65;2.88;;;6.30;99.90;;;;;;4924275;29;20390;-85
2021/12/08 11:24:19;;;;;;;5.18;2.75;;;6.20;99.90;;;;;;4925168;29;20044;-85
2021/12/08 11:26:50;;;;;;;8.60;2.92;;;5.50;99.90;;;;;;4907988;29;20047;-84
2021/12/08 11:29:25;;;;;;;5.70;2.80;;;6.40;99.90;;;;;;4910889;29;20760;-84
2021/12/08 11:31:59;;;;;;;9.70;3.28;;;6.30;99.90;;;;;;4924667;29;20159;-84
2021/12/08 11:34:32;;;;;;;7.05;3.40;;;6.20;99.90;;;;;;4923275;29;20043;-81
2021/12/08 11:37:05;;;;;;;6.28;3.10;;;6.20;99.90;;;;;;4923333;29;20048;-81
2021/12/08 11:39:37;;;;;;;5.80;3.53;;;6.30;99.90;;;;;;4924384;29;20081;-81
2021/12/08 11:42:12;;;;;;;6.13;3.30;;;6.30;99.90;;;;;;4906862;29;20051;-82
2021/12/08 11:44:41;;;;;;;4.85;2.97;;;6.20;99.90;;;;;;4922131;29;20124;-80
2021/12/08 11:47:10;;;;;;;7.28;3.28;;;6.20;99.90;;;;;;4923974;29;20054;-81
2021/12/08 11:49:42;;;;;;;4.72;3.20;;;6.10;99.90;;;;;;4928148;29;20063;-82
2021/12/08 11:52:13;;;;;;;6.40;3.33;;;6.30;99.90;;;;;;4909094;29;20497;-81
2021/12/08 11:54:41;;;;;;;6.63;3.33;;;6.40;99.90;;;;;;4905926;29;20079;-81
2021/12/08 11:57:11;;;;;;;9.85;3.28;;;6.50;99.90;;;;;;4923503;29;20110;-81
2021/12/08 12:00:00;;;;;;;5.97;3.30;;;5.90;99.90;;;;;;4922925;29;20066;-81
2021/12/08 12:02:39;;;;;;;7.95;3.58;;;5.90;99.90;;;;;;4918741;29;20575;-81
2021/12/08 12:05:09;;;;;;;5.97;3.38;;;5.90;99.90;;;;;;4928621;29;20051;-83
2021/12/08 12:07:36;;;;;;;6.57;3.40;;;5.90;99.90;;;;;;4924557;29;20056;-86
2021/12/08 12:10:11;;;;;;;4.65;3.22;;;6.10;99.90;;;;;;4928196;29;20056;-83
2021/12/08 12:12:39;;;;;;;5.25;3.53;;;6.00;99.90;;;;;;4928543;29;20060;-84
2021/12/08 12:15:09;;;;;;;7.80;3.58;;;7.00;99.90;;;;;;4911023;29;20047;-89
2021/12/08 12:17:35;;;;;;;7.30;3.25;;;7.10;99.90;;;;;;4922503;29;20047;-82
2021/12/08 12:20:26;;;;;;;10.13;3.28;;;5.90;99.90;;;;;;4923293;29;20051;-84
2021/12/08 12:23:21;;;;;;;6.07;3.38;;;5.80;99.90;;;;;;4938903;29;20096;-89
2021/12/08 12:26:06;;;;;;;6.57;3.55;;;5.80;99.90;;;;;;4906494;29;20040;-82
2021/12/08 12:28:47;;;;;;;7.40;3.88;;;5.80;99.90;;;;;;4923264;29;20047;-86
2021/12/08 12:31:34;;;;;;;7.75;3.35;;;6.10;99.90;;;;;;4923437;29;20044;-84
2021/12/08 12:33:59;;;;;;;4.97;3.22;;;5.70;99.90;;;;;;4904221;29;20088;-82
2021/12/08 12:36:32;;;;;;;4.82;3.30;;;5.70;99.90;;;;;;4906985;29;20091;-82
2021/12/08 12:39:26;;;;;;;7.45;3.92;;;5.70;99.90;;;;;;4922810;29;20050;-82
2021/12/08 12:42:11;;;;;;;5.82;3.50;;;5.70;99.90;;;;;;4919557;29;20095;-81
2021/12/08 12:44:40;;;;;;;5.80;3.80;;;5.70;99.90;;;;;;4938667;29;20107;-83
2021/12/08 12:47:08;;;;;;;6.70;3.85;;;5.70;99.90;;;;;;4928588;29;20043;-81
2021/12/08 12:49:34;;;;;;;6.00;3.60;;;5.70;99.90;;;;;;4906960;29;20048;-82
2021/12/08 12:52:09;;;;;;;7.20;3.67;;;6.20;99.90;;;;;;4927207;29;20048;-81
2021/12/08 12:54:35;;;;;;;8.70;3.78;;;5.70;99.90;;;;;;4907457;29;20044;-82
2021/12/08 12:57:06;;;;;;;5.22;3.22;;;5.70;99.90;;;;;;4937963;29;20803;-82
2021/12/08 12:59:58;;;;;;;6.07;4.30;;;5.70;99.90;;;;;;4911407;29;20092;-81
2021/12/08 13:02:33;;;;;;;8.50;4.00;;;5.70;99.90;;;;;;4919132;29;20044;-81
2021/12/08 13:05:10;;;;;;;5.10;3.20;;;5.60;99.90;;;;;;4906449;29;20143;-82
2021/12/08 13:07:39;;;;;;;8.07;3.35;;;5.60;99.90;;;;;;4923576;29;20063;-82
2021/12/08 13:10:08;;;;;;;4.97;3.35;;;5.60;99.90;;;;;;4911757;29;20062;-82
2021/12/08 13:12:37;;;;;;;5.20;3.30;;;5.60;99.90;;;;;;4906071;29;20134;-80
2021/12/08 13:15:16;;;;;;;5.72;3.47;;;5.60;99.90;;;;;;4920780;29;20059;-80
2021/12/08 13:18:09;;;;;;;6.57;3.65;;;5.60;99.90;;;;;;4920865;29;20044;-80
2021/12/08 13:20:41;;;;;;;7.38;3.40;;;5.50;99.90;;;;;;4905924;29;20056;-80
2021/12/08 13:23:12;;;;;;;8.00;3.22;;;5.50;99.90;;;;;;4921544;29;20063;-80
2021/12/08 13:25:48;;;;;;;5.43;3.33;;;5.50;99.90;;;;;;4919754;29;20055;-80
2021/12/08 13:28:32;;;;;;;6.13;3.25;;;5.50;99.90;;;;;;4908717;29;20047;-80
2021/12/08 13:31:58;;;;;;;5.93;3.80;;;5.50;99.90;;;;;;4908140;29;20088;-80
2021/12/08 13:34:14;;;;;;;5.95;3.38;;;5.40;99.90;;;;;;4924874;29;20138;-80
2021/12/08 13:36:46;;;;;;;5.20;3.50;;;6.10;99.90;;;;;;4925199;29;20055;-80
2021/12/08 13:39:26;;;;;;;5.15;3.80;;;5.40;99.90;;;;;;4900285;29;20525;-80
2021/12/08 13:42:01;;;;;;;5.72;3.70;;;5.40;99.90;;;;;;4926703;29;20162;-81
2021/12/08 13:44:35;;;;;;;6.57;3.78;;;5.40;99.90;;;;;;4930685;29;20070;-81
2021/12/08 13:47:27;;;;;;;6.07;4.30;;;6.50;99.90;;;;;;4923895;29;20060;-79
2021/12/08 13:50:04;;;;;;;6.38;4.32;;;5.40;99.90;;;;;;4915967;29;20059;-80
2021/12/08 13:52:32;;;;;;;6.50;4.53;;;5.30;99.90;;;;;;4931940;29;20165;-79
2021/12/08 13:55:16;;;;;;;6.90;4.43;;;5.30;99.90;;;;;;4923541;29;20094;-81
2021/12/08 13:57:43;;;;;;;7.93;4.93;;;5.30;99.90;;;;;;4924734;29;20062;-80
2021/12/08 14:00:31;;;;;;;5.45;4.70;;;5.30;99.90;;;;;;4909041;29;20151;-80
2021/12/08 14:03:04;;;;;;;7.13;4.78;;;5.30;99.90;;;;;;4923871;29;20060;-81
2021/12/08 14:05:31;;;;;;;6.78;4.53;;;5.30;99.90;;;;;;4908765;29;20048;-80
2021/12/08 14:08:23;;;;;;;5.45;4.38;;;5.20;99.90;;;;;;4908931;29;20494;-82
2021/12/08 14:10:55;;;;;;;7.10;5.03;;;5.20;99.90;;;;;;4906346;29;20151;-80
2021/12/08 14:13:28;;;;;;;7.13;4.75;;;5.30;99.90;;;;;;4922705;29;20111;-80
2021/12/08 14:16:05;;;;;;;6.75;4.63;;;5.30;99.90;;;;;;4922917;29;20051;-82